sensor_id;sensor_type;location;lat;lon;timestamp;P1;durP1;ratioP1;P2;durP2;ratioP2
23565;SDS011;22140;48.988;8.544;2023-08-24T00:00:41;11.75;;;7.25;;
23565;SDS011;22140;48.988;8.544;2023-08-24T00:05:42;14.50;;;7.37;;
23565;SDS011;22140;48.988;8.544;2023-08-24T00:10:43;14.53;;;7.60;;
23565;SDS011;22140;48.988;8.544;2023-08-24T00:15:47;13.60;;;7.70;;
23565;SDS011;22140;48.988;8.544;2023-08-24T00:20:49;13.50;;;8.15;;
23565;SDS011;22140;48.988;8.544;2023-08-24T00:25:50;15.13;;;8.17;;
23565;SDS011;22140;48.988;8.544;2023-08-24T00:30:51;11.48;;;7.53;;
23565;SDS011;22140;48.988;8.544;2023-08-24T00:35:53;13.88;;;7.55;;
23565;SDS011;22140;48.988;8.544;2023-08-24T00:40:55;12.60;;;7.33;;
23565;SDS011;22140;48.988;8.544;2023-08-24T00:45:57;10.85;;;7.60;;
23565;SDS011;22140;48.988;8.544;2023-08-24T00:51:00;14.13;;;7.63;;
23565;SDS011;22140;48.988;8.544;2023-08-24T00:56:02;13.27;;;7.97;;
23565;SDS011;22140;48.988;8.544;2023-08-24T01:01:04;12.50;;;7.90;;
23565;SDS011;22140;48.988;8.544;2023-08-24T01:06:06;12.02;;;7.57;;
23565;SDS011;22140;48.988;8.544;2023-08-24T01:11:31;11.98;;;7.57;;
23565;SDS011;22140;48.988;8.544;2023-08-24T01:16:33;12.47;;;7.40;;
23565;SDS011;22140;48.988;8.544;2023-08-24T01:21:37;12.63;;;7.28;;
23565;SDS011;22140;48.988;8.544;2023-08-24T01:26:39;12.52;;;6.70;;
23565;SDS011;22140;48.988;8.544;2023-08-24T01:31:41;12.03;;;7.23;;
23565;SDS011;22140;48.988;8.544;2023-08-24T01:36:43;14.52;;;8.07;;
23565;SDS011;22140;48.988;8.544;2023-08-24T01:41:44;13.13;;;7.07;;
23565;SDS011;22140;48.988;8.544;2023-08-24T01:46:47;12.10;;;7.50;;
23565;SDS011;22140;48.988;8.544;2023-08-24T01:51:49;12.57;;;8.10;;
23565;SDS011;22140;48.988;8.544;2023-08-24T01:56:50;17.30;;;7.90;;
23565;SDS011;22140;48.988;8.544;2023-08-24T02:01:52;18.02;;;7.70;;
23565;SDS011;22140;48.988;8.544;2023-08-24T02:06:53;15.00;;;7.57;;
23565;SDS011;22140;48.988;8.544;2023-08-24T02:11:54;12.93;;;7.85;;
23565;SDS011;22140;48.988;8.544;2023-08-24T02:16:55;12.93;;;7.43;;
23565;SDS011;22140;48.988;8.544;2023-08-24T02:21:57;14.03;;;8.10;;
23565;SDS011;22140;48.988;8.544;2023-08-24T02:26:58;12.68;;;7.40;;
23565;SDS011;22140;48.988;8.544;2023-08-24T02:32:00;12.40;;;7.57;;
23565;SDS011;22140;48.988;8.544;2023-08-24T02:37:01;11.90;;;7.50;;
23565;SDS011;22140;48.988;8.544;2023-08-24T02:42:02;15.53;;;7.73;;
23565;SDS011;22140;48.988;8.544;2023-08-24T02:47:04;10.88;;;7.28;;
23565;SDS011;22140;48.988;8.544;2023-08-24T02:52:05;11.30;;;7.00;;
23565;SDS011;22140;48.988;8.544;2023-08-24T02:57:07;12.33;;;7.60;;
23565;SDS011;22140;48.988;8.544;2023-08-24T03:02:08;13.23;;;7.60;;
23565;SDS011;22140;48.988;8.544;2023-08-24T03:07:10;16.00;;;7.43;;
23565;SDS011;22140;48.988;8.544;2023-08-24T03:12:11;11.80;;;7.37;;
23565;SDS011;22140;48.988;8.544;2023-08-24T03:17:13;14.38;;;7.65;;
23565;SDS011;22140;48.988;8.544;2023-08-24T03:22:15;10.80;;;7.10;;
23565;SDS011;22140;48.988;8.544;2023-08-24T03:27:16;11.70;;;6.67;;
23565;SDS011;22140;48.988;8.544;2023-08-24T03:32:17;11.33;;;6.80;;
23565;SDS011;22140;48.988;8.544;2023-08-24T03:37:19;11.48;;;6.32;;
23565;SDS011;22140;48.988;8.544;2023-08-24T03:42:20;10.73;;;6.45;;
23565;SDS011;22140;48.988;8.544;2023-08-24T03:47:21;12.00;;;6.17;;
23565;SDS011;22140;48.988;8.544;2023-08-24T03:52:23;12.15;;;6.47;;
23565;SDS011;22140;48.988;8.544;2023-08-24T03:57:24;13.27;;;6.75;;
23565;SDS011;22140;48.988;8.544;2023-08-24T04:02:25;12.53;;;6.80;;
23565;SDS011;22140;48.988;8.544;2023-08-24T04:07:28;13.07;;;5.95;;
23565;SDS011;22140;48.988;8.544;2023-08-24T04:12:29;13.35;;;6.32;;
23565;SDS011;22140;48.988;8.544;2023-08-24T04:17:31;17.00;;;6.97;;
23565;SDS011;22140;48.988;8.544;2023-08-24T04:22:33;13.50;;;7.13;;
23565;SDS011;22140;48.988;8.544;2023-08-24T04:27:35;10.30;;;6.45;;
23565;SDS011;22140;48.988;8.544;2023-08-24T04:32:37;14.90;;;7.50;;
23565;SDS011;22140;48.988;8.544;2023-08-24T04:37:39;18.87;;;8.27;;
23565;SDS011;22140;48.988;8.544;2023-08-24T04:42:40;14.52;;;7.40;;
23565;SDS011;22140;48.988;8.544;2023-08-24T04:47:41;16.95;;;7.97;;
23565;SDS011;22140;48.988;8.544;2023-08-24T04:52:43;13.13;;;6.60;;
23565;SDS011;22140;48.988;8.544;2023-08-24T04:57:44;14.05;;;6.65;;
23565;SDS011;22140;48.988;8.544;2023-08-24T05:02:47;11.32;;;6.43;;
23565;SDS011;22140;48.988;8.544;2023-08-24T05:07:49;12.37;;;6.80;;
23565;SDS011;22140;48.988;8.544;2023-08-24T05:12:50;60.67;;;11.17;;
23565;SDS011;22140;48.988;8.544;2023-08-24T05:17:52;18.90;;;7.20;;
23565;SDS011;22140;48.988;8.544;2023-08-24T05:22:55;17.77;;;7.28;;
23565;SDS011;22140;48.988;8.544;2023-08-24T05:27:57;25.63;;;7.17;;
23565;SDS011;22140;48.988;8.544;2023-08-24T05:32:58;21.00;;;7.30;;
23565;SDS011;22140;48.988;8.544;2023-08-24T05:38:00;23.55;;;7.40;;
23565;SDS011;22140;48.988;8.544;2023-08-24T05:43:01;10.57;;;6.10;;
23565;SDS011;22140;48.988;8.544;2023-08-24T05:48:03;31.75;;;7.30;;
23565;SDS011;22140;48.988;8.544;2023-08-24T05:53:04;13.77;;;6.45;;
23565;SDS011;22140;48.988;8.544;2023-08-24T05:58:06;16.37;;;6.50;;
23565;SDS011;22140;48.988;8.544;2023-08-24T06:03:07;13.40;;;6.07;;
23565;SDS011;22140;48.988;8.544;2023-08-24T06:08:08;15.10;;;6.10;;
23565;SDS011;22140;48.988;8.544;2023-08-24T06:13:10;13.35;;;5.55;;
23565;SDS011;22140;48.988;8.544;2023-08-24T06:18:11;11.93;;;5.63;;
23565;SDS011;22140;48.988;8.544;2023-08-24T06:23:13;13.40;;;5.82;;
23565;SDS011;22140;48.988;8.544;2023-08-24T06:28:17;13.00;;;6.03;;
23565;SDS011;22140;48.988;8.544;2023-08-24T06:33:18;12.53;;;6.07;;
23565;SDS011;22140;48.988;8.544;2023-08-24T06:38:19;10.55;;;5.53;;
23565;SDS011;22140;48.988;8.544;2023-08-24T06:43:21;13.07;;;5.45;;
23565;SDS011;22140;48.988;8.544;2023-08-24T06:48:22;8.37;;;4.53;;
23565;SDS011;22140;48.988;8.544;2023-08-24T06:53:24;8.10;;;4.27;;
23565;SDS011;22140;48.988;8.544;2023-08-24T06:58:25;8.90;;;4.47;;
23565;SDS011;22140;48.988;8.544;2023-08-24T07:03:26;9.93;;;4.40;;
23565;SDS011;22140;48.988;8.544;2023-08-24T07:08:28;14.47;;;4.13;;
23565;SDS011;22140;48.988;8.544;2023-08-24T07:13:29;7.97;;;3.85;;
23565;SDS011;22140;48.988;8.544;2023-08-24T07:18:30;9.15;;;3.85;;
23565;SDS011;22140;48.988;8.544;2023-08-24T07:23:32;10.57;;;3.90;;
23565;SDS011;22140;48.988;8.544;2023-08-24T07:28:33;10.15;;;4.00;;
23565;SDS011;22140;48.988;8.544;2023-08-24T07:33:35;8.70;;;3.60;;
23565;SDS011;22140;48.988;8.544;2023-08-24T07:38:36;10.00;;;3.83;;
23565;SDS011;22140;48.988;8.544;2023-08-24T07:43:37;13.77;;;4.23;;
23565;SDS011;22140;48.988;8.544;2023-08-24T07:48:39;13.27;;;4.60;;
23565;SDS011;22140;48.988;8.544;2023-08-24T07:53:40;13.25;;;4.40;;
23565;SDS011;22140;48.988;8.544;2023-08-24T07:58:42;12.23;;;4.43;;
23565;SDS011;22140;48.988;8.544;2023-08-24T08:03:43;13.43;;;4.30;;
23565;SDS011;22140;48.988;8.544;2023-08-24T08:08:44;7.10;;;4.18;;
23565;SDS011;22140;48.988;8.544;2023-08-24T08:13:47;8.03;;;4.37;;
23565;SDS011;22140;48.988;8.544;2023-08-24T08:18:49;9.30;;;4.35;;
23565;SDS011;22140;48.988;8.544;2023-08-24T08:23:50;9.60;;;4.50;;
23565;SDS011;22140;48.988;8.544;2023-08-24T08:28:52;13.23;;;4.40;;
23565;SDS011;22140;48.988;8.544;2023-08-24T08:33:53;9.90;;;4.30;;
23565;SDS011;22140;48.988;8.544;2023-08-24T08:38:55;10.80;;;4.40;;
23565;SDS011;22140;48.988;8.544;2023-08-24T08:43:57;13.45;;;4.45;;
23565;SDS011;22140;48.988;8.544;2023-08-24T08:48:59;8.47;;;4.00;;
23565;SDS011;22140;48.988;8.544;2023-08-24T08:54:01;11.68;;;4.55;;
23565;SDS011;22140;48.988;8.544;2023-08-24T08:59:03;10.63;;;4.78;;
23565;SDS011;22140;48.988;8.544;2023-08-24T09:04:06;13.73;;;5.07;;
23565;SDS011;22140;48.988;8.544;2023-08-24T09:09:07;12.93;;;4.82;;
23565;SDS011;22140;48.988;8.544;2023-08-24T09:14:09;9.80;;;4.90;;
23565;SDS011;22140;48.988;8.544;2023-08-24T09:19:11;8.63;;;4.70;;
23565;SDS011;22140;48.988;8.544;2023-08-24T09:24:12;14.57;;;5.30;;
23565;SDS011;22140;48.988;8.544;2023-08-24T09:29:14;9.57;;;4.70;;
23565;SDS011;22140;48.988;8.544;2023-08-24T09:34:19;13.20;;;4.90;;
23565;SDS011;22140;48.988;8.544;2023-08-24T09:39:21;21.90;;;5.77;;
23565;SDS011;22140;48.988;8.544;2023-08-24T09:44:23;8.68;;;5.13;;
23565;SDS011;22140;48.988;8.544;2023-08-24T09:49:24;12.15;;;5.25;;
23565;SDS011;22140;48.988;8.544;2023-08-24T09:54:27;11.57;;;5.00;;
23565;SDS011;22140;48.988;8.544;2023-08-24T09:59:29;11.07;;;5.32;;
23565;SDS011;22140;48.988;8.544;2023-08-24T10:04:33;12.10;;;4.80;;
23565;SDS011;22140;48.988;8.544;2023-08-24T10:09:38;18.40;;;4.90;;
23565;SDS011;22140;48.988;8.544;2023-08-24T10:19:42;9.88;;;4.45;;
23565;SDS011;22140;48.988;8.544;2023-08-24T10:24:46;9.50;;;5.28;;
23565;SDS011;22140;48.988;8.544;2023-08-24T10:29:48;12.67;;;4.90;;
23565;SDS011;22140;48.988;8.544;2023-08-24T10:34:49;13.85;;;5.50;;
23565;SDS011;22140;48.988;8.544;2023-08-24T10:39:51;12.35;;;4.95;;
23565;SDS011;22140;48.988;8.544;2023-08-24T10:44:53;8.63;;;4.70;;
23565;SDS011;22140;48.988;8.544;2023-08-24T10:54:55;11.45;;;5.57;;
23565;SDS011;22140;48.988;8.544;2023-08-24T11:00:04;17.37;;;5.57;;
23565;SDS011;22140;48.988;8.544;2023-08-24T11:10:25;12.85;;;5.65;;
23565;SDS011;22140;48.988;8.544;2023-08-24T11:21:00;12.97;;;5.10;;
23565;SDS011;22140;48.988;8.544;2023-08-24T11:26:03;10.13;;;5.82;;
23565;SDS011;22140;48.988;8.544;2023-08-24T11:31:04;13.60;;;5.32;;
23565;SDS011;22140;48.988;8.544;2023-08-24T11:36:06;14.10;;;6.20;;
23565;SDS011;22140;48.988;8.544;2023-08-24T11:41:12;10.20;;;5.53;;
23565;SDS011;22140;48.988;8.544;2023-08-24T11:46:17;12.13;;;5.57;;
23565;SDS011;22140;48.988;8.544;2023-08-24T11:51:19;14.10;;;6.60;;
23565;SDS011;22140;48.988;8.544;2023-08-24T11:56:43;10.90;;;6.20;;
23565;SDS011;22140;48.988;8.544;2023-08-24T12:01:45;16.52;;;6.40;;
23565;SDS011;22140;48.988;8.544;2023-08-24T12:06:47;10.98;;;5.35;;
23565;SDS011;22140;48.988;8.544;2023-08-24T12:11:49;14.37;;;6.10;;
23565;SDS011;22140;48.988;8.544;2023-08-24T12:16:50;11.60;;;5.63;;
23565;SDS011;22140;48.988;8.544;2023-08-24T12:21:54;12.18;;;5.93;;
23565;SDS011;22140;48.988;8.544;2023-08-24T12:26:56;10.90;;;6.50;;
23565;SDS011;22140;48.988;8.544;2023-08-24T12:32:00;11.15;;;5.65;;
23565;SDS011;22140;48.988;8.544;2023-08-24T12:37:02;13.70;;;6.00;;
23565;SDS011;22140;48.988;8.544;2023-08-24T12:42:03;12.17;;;5.90;;
23565;SDS011;22140;48.988;8.544;2023-08-24T12:47:05;11.20;;;6.27;;
23565;SDS011;22140;48.988;8.544;2023-08-24T12:52:06;12.45;;;6.10;;
23565;SDS011;22140;48.988;8.544;2023-08-24T12:57:08;12.02;;;6.10;;
23565;SDS011;22140;48.988;8.544;2023-08-24T13:02:09;66.97;;;10.37;;
23565;SDS011;22140;48.988;8.544;2023-08-24T13:07:16;31.10;;;7.60;;
23565;SDS011;22140;48.988;8.544;2023-08-24T13:12:18;11.48;;;6.47;;
23565;SDS011;22140;48.988;8.544;2023-08-24T13:17:19;16.07;;;6.33;;
23565;SDS011;22140;48.988;8.544;2023-08-24T13:22:20;11.10;;;6.05;;
23565;SDS011;22140;48.988;8.544;2023-08-24T13:27:22;11.95;;;6.15;;
23565;SDS011;22140;48.988;8.544;2023-08-24T13:32:23;15.33;;;6.20;;
23565;SDS011;22140;48.988;8.544;2023-08-24T13:37:25;12.23;;;5.90;;
23565;SDS011;22140;48.988;8.544;2023-08-24T13:42:26;13.43;;;6.40;;
23565;SDS011;22140;48.988;8.544;2023-08-24T13:47:27;66.60;;;10.40;;
23565;SDS011;22140;48.988;8.544;2023-08-24T13:52:29;16.83;;;6.20;;
23565;SDS011;22140;48.988;8.544;2023-08-24T13:57:30;12.27;;;6.10;;
23565;SDS011;22140;48.988;8.544;2023-08-24T14:02:31;12.88;;;6.03;;
23565;SDS011;22140;48.988;8.544;2023-08-24T14:07:33;14.93;;;6.23;;
23565;SDS011;22140;48.988;8.544;2023-08-24T14:12:34;17.17;;;7.55;;
23565;SDS011;22140;48.988;8.544;2023-08-24T14:17:35;13.38;;;6.57;;
23565;SDS011;22140;48.988;8.544;2023-08-24T14:22:37;13.43;;;6.77;;
23565;SDS011;22140;48.988;8.544;2023-08-24T14:27:39;30.90;;;9.23;;
23565;SDS011;22140;48.988;8.544;2023-08-24T14:32:45;20.30;;;9.05;;
23565;SDS011;22140;48.988;8.544;2023-08-24T14:37:46;16.10;;;8.63;;
23565;SDS011;22140;48.988;8.544;2023-08-24T14:42:48;16.00;;;8.57;;
23565;SDS011;22140;48.988;8.544;2023-08-24T14:47:50;14.15;;;8.68;;
23565;SDS011;22140;48.988;8.544;2023-08-24T14:52:52;16.30;;;8.60;;
23565;SDS011;22140;48.988;8.544;2023-08-24T14:57:53;13.93;;;7.50;;
23565;SDS011;22140;48.988;8.544;2023-08-24T15:02:56;14.18;;;7.70;;
23565;SDS011;22140;48.988;8.544;2023-08-24T15:07:58;14.43;;;7.22;;
23565;SDS011;22140;48.988;8.544;2023-08-24T15:12:59;16.77;;;8.37;;
23565;SDS011;22140;48.988;8.544;2023-08-24T15:18:00;14.37;;;8.23;;
23565;SDS011;22140;48.988;8.544;2023-08-24T15:23:02;15.70;;;8.40;;
23565;SDS011;22140;48.988;8.544;2023-08-24T15:28:03;16.50;;;9.10;;
23565;SDS011;22140;48.988;8.544;2023-08-24T15:33:05;13.70;;;8.40;;
23565;SDS011;22140;48.988;8.544;2023-08-24T15:38:06;15.40;;;8.50;;
23565;SDS011;22140;48.988;8.544;2023-08-24T15:43:07;17.42;;;8.38;;
23565;SDS011;22140;48.988;8.544;2023-08-24T15:48:09;19.17;;;9.37;;
23565;SDS011;22140;48.988;8.544;2023-08-24T15:53:10;20.13;;;8.73;;
23565;SDS011;22140;48.988;8.544;2023-08-24T15:58:12;14.90;;;8.00;;
23565;SDS011;22140;48.988;8.544;2023-08-24T16:03:13;21.10;;;8.67;;
23565;SDS011;22140;48.988;8.544;2023-08-24T16:08:14;16.80;;;8.27;;
23565;SDS011;22140;48.988;8.544;2023-08-24T16:13:18;14.57;;;8.60;;
23565;SDS011;22140;48.988;8.544;2023-08-24T16:18:21;18.30;;;8.32;;
23565;SDS011;22140;48.988;8.544;2023-08-24T16:23:23;12.90;;;8.13;;
23565;SDS011;22140;48.988;8.544;2023-08-24T16:28:24;13.40;;;8.68;;
23565;SDS011;22140;48.988;8.544;2023-08-24T16:33:26;22.33;;;10.20;;
23565;SDS011;22140;48.988;8.544;2023-08-24T16:38:27;15.90;;;8.63;;
23565;SDS011;22140;48.988;8.544;2023-08-24T16:43:29;18.50;;;8.50;;
23565;SDS011;22140;48.988;8.544;2023-08-24T16:48:30;18.65;;;8.68;;
23565;SDS011;22140;48.988;8.544;2023-08-24T16:53:32;14.30;;;8.00;;
23565;SDS011;22140;48.988;8.544;2023-08-24T16:58:33;11.93;;;8.17;;
23565;SDS011;22140;48.988;8.544;2023-08-24T17:03:35;14.68;;;7.88;;
23565;SDS011;22140;48.988;8.544;2023-08-24T17:08:36;14.40;;;7.55;;
23565;SDS011;22140;48.988;8.544;2023-08-24T17:13:37;14.77;;;7.17;;
23565;SDS011;22140;48.988;8.544;2023-08-24T17:18:39;12.27;;;7.53;;
23565;SDS011;22140;48.988;8.544;2023-08-24T17:23:40;12.90;;;7.57;;
23565;SDS011;22140;48.988;8.544;2023-08-24T17:28:42;17.10;;;8.07;;
23565;SDS011;22140;48.988;8.544;2023-08-24T17:33:43;17.25;;;8.73;;
23565;SDS011;22140;48.988;8.544;2023-08-24T17:38:44;14.10;;;7.70;;
23565;SDS011;22140;48.988;8.544;2023-08-24T17:43:47;12.00;;;7.97;;
23565;SDS011;22140;48.988;8.544;2023-08-24T17:48:50;13.27;;;7.57;;
23565;SDS011;22140;48.988;8.544;2023-08-24T17:53:51;13.48;;;7.90;;
23565;SDS011;22140;48.988;8.544;2023-08-24T17:58:52;15.70;;;8.07;;
23565;SDS011;22140;48.988;8.544;2023-08-24T18:03:54;16.00;;;7.70;;
23565;SDS011;22140;48.988;8.544;2023-08-24T18:08:55;12.18;;;7.50;;
23565;SDS011;22140;48.988;8.544;2023-08-24T18:13:56;13.27;;;8.27;;
23565;SDS011;22140;48.988;8.544;2023-08-24T18:18:58;12.03;;;7.60;;
23565;SDS011;22140;48.988;8.544;2023-08-24T18:24:00;16.83;;;8.27;;
23565;SDS011;22140;48.988;8.544;2023-08-24T18:29:01;15.27;;;7.85;;
23565;SDS011;22140;48.988;8.544;2023-08-24T18:34:02;17.97;;;8.10;;
23565;SDS011;22140;48.988;8.544;2023-08-24T18:39:04;12.37;;;8.80;;
23565;SDS011;22140;48.988;8.544;2023-08-24T18:44:05;14.15;;;8.73;;
23565;SDS011;22140;48.988;8.544;2023-08-24T18:49:07;13.10;;;8.18;;
23565;SDS011;22140;48.988;8.544;2023-08-24T18:54:09;13.33;;;8.20;;
23565;SDS011;22140;48.988;8.544;2023-08-24T18:59:10;17.65;;;8.60;;
23565;SDS011;22140;48.988;8.544;2023-08-24T19:04:11;15.98;;;8.82;;
23565;SDS011;22140;48.988;8.544;2023-08-24T19:09:13;16.63;;;9.50;;
23565;SDS011;22140;48.988;8.544;2023-08-24T19:14:14;14.90;;;9.23;;
23565;SDS011;22140;48.988;8.544;2023-08-24T19:19:16;15.85;;;9.02;;
23565;SDS011;22140;48.988;8.544;2023-08-24T19:24:17;14.93;;;8.60;;
23565;SDS011;22140;48.988;8.544;2023-08-24T19:29:19;15.07;;;9.73;;
23565;SDS011;22140;48.988;8.544;2023-08-24T19:34:20;19.10;;;9.40;;
23565;SDS011;22140;48.988;8.544;2023-08-24T19:39:21;16.20;;;10.00;;
23565;SDS011;22140;48.988;8.544;2023-08-24T19:44:23;14.60;;;9.33;;
23565;SDS011;22140;48.988;8.544;2023-08-24T19:49:24;16.95;;;9.45;;
23565;SDS011;22140;48.988;8.544;2023-08-24T19:54:25;15.02;;;9.48;;
23565;SDS011;22140;48.988;8.544;2023-08-24T19:59:27;12.73;;;8.10;;
23565;SDS011;22140;48.988;8.544;2023-08-24T20:04:28;13.90;;;8.48;;
23565;SDS011;22140;48.988;8.544;2023-08-24T20:09:30;14.98;;;9.23;;
23565;SDS011;22140;48.988;8.544;2023-08-24T20:14:31;14.50;;;9.30;;
23565;SDS011;22140;48.988;8.544;2023-08-24T20:19:33;13.33;;;8.93;;
23565;SDS011;22140;48.988;8.544;2023-08-24T20:24:34;14.32;;;9.38;;
23565;SDS011;22140;48.988;8.544;2023-08-24T20:29:35;16.10;;;9.32;;
23565;SDS011;22140;48.988;8.544;2023-08-24T20:34:37;12.30;;;7.97;;
23565;SDS011;22140;48.988;8.544;2023-08-24T20:39:38;11.23;;;7.05;;
23565;SDS011;22140;48.988;8.544;2023-08-24T20:44:41;12.07;;;7.15;;
23565;SDS011;22140;48.988;8.544;2023-08-24T20:49:43;12.47;;;7.37;;
23565;SDS011;22140;48.988;8.544;2023-08-24T20:54:44;11.63;;;7.50;;
23565;SDS011;22140;48.988;8.544;2023-08-24T20:59:47;12.95;;;7.90;;
23565;SDS011;22140;48.988;8.544;2023-08-24T21:04:48;12.03;;;7.73;;
23565;SDS011;22140;48.988;8.544;2023-08-24T21:09:51;13.43;;;7.20;;
23565;SDS011;22140;48.988;8.544;2023-08-24T21:14:53;14.35;;;7.57;;
23565;SDS011;22140;48.988;8.544;2023-08-24T21:19:54;14.00;;;7.15;;
23565;SDS011;22140;48.988;8.544;2023-08-24T21:24:56;13.63;;;7.57;;
23565;SDS011;22140;48.988;8.544;2023-08-24T21:30:00;13.25;;;7.40;;
23565;SDS011;22140;48.988;8.544;2023-08-24T21:35:02;11.98;;;7.60;;
23565;SDS011;22140;48.988;8.544;2023-08-24T21:40:05;11.30;;;6.97;;
23565;SDS011;22140;48.988;8.544;2023-08-24T21:45:07;13.88;;;7.20;;
23565;SDS011;22140;48.988;8.544;2023-08-24T21:50:09;10.23;;;6.68;;
23565;SDS011;22140;48.988;8.544;2023-08-24T21:55:10;12.27;;;6.47;;
23565;SDS011;22140;48.988;8.544;2023-08-24T22:00:12;10.57;;;5.70;;
23565;SDS011;22140;48.988;8.544;2023-08-24T22:05:14;9.20;;;5.68;;
23565;SDS011;22140;48.988;8.544;2023-08-24T22:10:16;11.93;;;6.18;;
23565;SDS011;22140;48.988;8.544;2023-08-24T22:15:17;12.53;;;6.17;;
23565;SDS011;22140;48.988;8.544;2023-08-24T22:20:18;14.00;;;7.05;;
23565;SDS011;22140;48.988;8.544;2023-08-24T22:25:20;10.93;;;7.13;;
23565;SDS011;22140;48.988;8.544;2023-08-24T22:30:21;11.47;;;6.73;;
23565;SDS011;22140;48.988;8.544;2023-08-24T22:35:23;15.88;;;6.05;;
23565;SDS011;22140;48.988;8.544;2023-08-24T22:40:24;14.30;;;6.47;;
23565;SDS011;22140;48.988;8.544;2023-08-24T22:45:38;12.17;;;6.77;;
23565;SDS011;22140;48.988;8.544;2023-08-24T22:50:45;11.50;;;6.13;;
23565;SDS011;22140;48.988;8.544;2023-08-24T22:55:47;11.55;;;6.20;;
23565;SDS011;22140;48.988;8.544;2023-08-24T23:00:49;9.48;;;6.50;;
23565;SDS011;22140;48.988;8.544;2023-08-24T23:05:50;11.20;;;6.03;;
23565;SDS011;22140;48.988;8.544;2023-08-24T23:10:52;12.88;;;6.00;;
23565;SDS011;22140;48.988;8.544;2023-08-24T23:15:54;10.50;;;5.80;;
23565;SDS011;22140;48.988;8.544;2023-08-24T23:20:55;12.60;;;5.83;;
23565;SDS011;22140;48.988;8.544;2023-08-24T23:25:56;11.65;;;5.95;;
23565;SDS011;22140;48.988;8.544;2023-08-24T23:30:59;11.43;;;5.13;;
23565;SDS011;22140;48.988;8.544;2023-08-24T23:36:01;9.97;;;5.63;;
23565;SDS011;22140;48.988;8.544;2023-08-24T23:41:02;11.03;;;5.70;;
23565;SDS011;22140;48.988;8.544;2023-08-24T23:46:04;10.63;;;5.88;;
23565;SDS011;22140;48.988;8.544;2023-08-24T23:51:06;12.23;;;5.88;;
23565;SDS011;22140;48.988;8.544;2023-08-24T23:56:08;14.03;;;5.67;;
